.
WxDataArchive / Data Records for 2014-11-14
2014-11-13 November 2014 2014-11-15

Data Records for Friday, 14 November 2014

Time	Temp	Chill	HIndex	Humid	Dewpt	 Wind 	HiWind	WindDir	Rain 	Barom
-----	----	-----	------	-----	-----	------	------	-------	-----	-----
00:00	23.8	23.8	23.8	73	16.4	1	2	270	0.00	30.270 
00:05	23.8	23.8	23.8	73	16.4	0	1	270	0.00	30.270 
00:10	23.6	23.6	23.6	73	16.2	0	2	270	0.00	30.270 
00:15	23.6	23.6	23.6	73	16.2	0	2	270	0.00	30.268 
00:20	23.5	23.5	23.5	73	16.1	0	1	270	0.00	30.268 
00:25	23.3	23.3	23.3	73	15.9	0	1	270	0.00	30.268 
00:30	23.3	23.3	23.3	73	15.9	0	2	270	0.00	30.268 
00:35	23.3	23.3	23.3	73	15.9	0	2	270	0.00	30.268 
00:40	23.3	23.3	23.3	73	15.9	0	3	270	0.00	30.268 
00:45	23.2	23.2	23.2	73	15.9	0	1	270	0.00	30.267 
00:50	23.2	23.2	23.2	73	15.9	0	1	270	0.00	30.267 
00:55	23.0	23.0	23.0	73	15.7	0	1	270	0.00	30.267 
01:00	23.0	23.0	23.0	73	15.7	0	1	270	0.00	30.270 
01:05	22.9	22.9	22.9	73	15.6	0	1	270	0.00	30.270 
01:10	22.7	22.7	22.7	73	15.4	0	1	270	0.00	30.270 
01:15	22.7	22.7	22.7	74	15.7	0	2	270	0.00	30.268 
01:20	22.7	22.7	22.7	74	15.7	0	1	270	0.00	30.268 
01:25	22.5	22.5	22.5	74	15.5	0	1	270	0.00	30.268 
01:30	22.5	22.5	22.5	74	15.5	0	2	270	0.00	30.262 
01:35	22.5	22.5	22.5	74	15.5	0	2	270	0.00	30.262 
01:40	22.4	22.4	22.4	74	15.4	0	1	270	0.00	30.262 
01:45	22.4	22.4	22.4	74	15.4	0	1	270	0.00	30.264 
01:50	22.2	22.2	22.2	75	15.5	0	2	270	0.00	30.264 
01:55	22.1	22.1	22.1	75	15.4	0	1	270	0.00	30.264 
02:00	22.1	22.1	22.1	75	15.4	0	1	270	0.00	30.266 
02:05	21.9	21.9	21.9	76	15.5	0	2	270	0.00	30.266 
02:10	21.9	21.9	21.9	76	15.5	0	1	270	0.00	30.266 
02:15	21.8	21.8	21.8	76	15.4	0	1	270	0.00	30.269 
02:20	21.8	21.8	21.8	76	15.4	0	1	270	0.00	30.269 
02:25	21.6	21.6	21.6	76	15.2	0	1	270	0.00	30.269 
02:30	21.6	21.6	21.6	77	15.5	0	1	270	0.00	30.270 
02:35	21.4	21.4	21.4	77	15.3	0	2	270	0.00	30.270 
02:40	21.4	21.4	21.4	77	15.3	0	1	270	0.00	30.270 
02:45	21.4	21.4	21.4	77	15.3	0	1	270	0.00	30.267 
02:50	21.4	21.4	21.4	77	15.3	0	1	270	0.00	30.267 
02:55	21.4	21.4	21.4	77	15.3	0	3	270	0.00	30.267 
03:00	21.4	21.4	21.4	77	15.3	0	1	270	0.00	30.269 
03:05	21.4	21.4	21.4	78	15.6	0	1	270	0.00	30.269 
03:10	21.4	21.4	21.4	78	15.6	0	1	270	0.00	30.269 
03:15	21.3	21.3	21.3	78	15.5	0	1	270	0.00	30.272 
03:20	21.3	21.3	21.3	78	15.5	0	1	270	0.00	30.272 
03:25	21.3	21.3	21.3	78	15.5	0	1	270	0.00	30.272 
03:30	21.1	21.1	21.1	78	15.3	0	1	270	0.00	30.271 
03:35	21.1	21.1	21.1	79	15.6	0	2	270	0.00	30.271 
03:40	21.1	21.1	21.1	79	15.6	0	2	270	0.00	30.271 
03:45	21.1	21.1	21.1	79	15.6	0	1	270	0.00	30.271 
03:50	21.1	21.1	21.1	79	15.6	0	2	270	0.00	30.271 
03:55	21.1	21.1	21.1	79	15.6	0	2	270	0.00	30.271 
04:00	21.1	21.1	21.1	79	15.6	0	1	270	0.00	30.272 
04:05	21.1	21.1	21.1	79	15.6	0	1	270	0.00	30.272 
04:10	21.1	21.1	21.1	80	15.9	0	1	270	0.00	30.272 
04:15	21.1	21.1	21.1	80	15.9	0	2	270	0.00	30.269 
04:20	21.1	21.1	21.1	80	15.9	0	2	270	0.00	30.269 
04:25	21.1	21.1	21.1	80	15.9	0	2	270	0.00	30.269 
04:30	21.1	21.1	21.1	80	15.9	0	2	270	0.00	30.271 
04:35	21.1	21.1	21.1	80	15.9	0	1	270	0.00	30.271 
04:40	21.3	21.3	21.3	81	16.4	1	2	270	0.00	30.271 
04:45	21.1	21.1	21.1	81	16.2	0	1	270	0.00	30.273 
04:50	21.1	21.1	21.1	81	16.2	0	1	270	0.00	30.273 
04:55	21.1	21.1	21.1	81	16.2	0	1	270	0.00	30.273 
05:00	21.1	21.1	21.1	81	16.2	0	1	270	0.00	30.275 
05:05	21.1	21.1	21.1	82	16.5	0	1	270	0.00	30.275 
05:10	21.1	21.1	21.1	82	16.5	0	1	270	0.00	30.275 
05:15	21.1	21.1	21.1	82	16.5	0	1	270	0.00	30.276 
05:20	21.1	21.1	21.1	82	16.5	0	1	270	0.00	30.276 
05:25	21.1	21.1	21.1	82	16.5	0	0	---	0.00	30.276 
05:30	21.0	21.0	21.0	83	16.7	0	1	270	0.00	30.278 
05:35	21.0	21.0	21.0	83	16.7	0	1	270	0.00	30.278 
05:40	20.8	20.8	20.8	83	16.5	0	1	270	0.00	30.278 
05:45	20.8	20.8	20.8	83	16.5	0	1	270	0.00	30.284 
05:50	20.8	20.8	20.8	84	16.7	0	1	270	0.00	30.284 
05:55	20.8	20.8	20.8	84	16.7	0	1	270	0.00	30.284 
06:00	21.0	21.0	21.0	84	16.9	0	1	270	0.00	30.283 
06:05	21.0	21.0	21.0	84	16.9	0	1	270	0.00	30.283 
06:10	21.0	21.0	21.0	84	16.9	0	1	270	0.00	30.283 
06:15	21.0	21.0	21.0	84	16.9	0	1	270	0.00	30.284 
06:20	21.0	21.0	21.0	84	16.9	0	1	270	0.00	30.284 
06:25	21.0	21.0	21.0	84	16.9	0	1	270	0.00	30.284 
06:30	21.0	21.0	21.0	85	17.2	0	2	270	0.00	30.286 
06:35	21.0	21.0	21.0	85	17.2	0	1	270	0.00	30.286 
06:40	21.0	21.0	21.0	85	17.2	0	2	270	0.00	30.286 
06:45	21.0	21.0	21.0	85	17.2	0	1	270	0.00	30.291 
06:50	21.1	21.1	21.1	85	17.3	0	1	270	0.00	30.291 
06:55	21.1	21.1	21.1	85	17.3	0	1	270	0.00	30.291 
07:00	21.0	21.0	21.0	85	17.2	0	1	270	0.00	30.291 
07:05	21.1	21.1	21.1	85	17.3	0	1	270	0.00	30.291 
07:10	21.1	21.1	21.1	85	17.3	0	1	270	0.00	30.291 
07:15	21.3	21.3	21.3	85	17.5	0	3	270	0.00	30.293 
07:20	21.3	21.3	21.3	85	17.5	0	1	270	0.00	30.293 
07:25	21.3	21.3	21.3	85	17.5	0	2	270	0.00	30.293 
07:30	21.3	21.3	21.3	85	17.5	0	2	270	0.00	30.293 
07:35	21.4	21.4	21.4	85	17.6	0	2	270	0.00	30.293 
07:40	21.4	21.4	21.4	85	17.6	0	2	270	0.00	30.293 
07:45	21.4	21.4	21.4	84	17.3	0	2	202	0.00	30.295 
07:50	21.6	21.6	21.6	84	17.5	0	2	202	0.00	30.295 
07:55	21.6	21.6	21.6	84	17.5	0	3	202	0.00	30.295 
08:00	21.8	21.8	21.8	84	17.7	0	2	248	0.00	30.300 
08:05	22.1	22.1	22.1	84	18.0	0	2	248	0.00	30.300 
08:10	22.2	22.2	22.2	84	18.1	1	3	248	0.00	30.300 
08:15	22.5	22.5	22.5	83	18.1	1	2	248	0.00	30.306 
08:20	22.9	22.9	22.9	82	18.2	1	2	248	0.00	30.306 
08:25	23.0	23.0	23.0	82	18.3	1	3	248	0.00	30.306 
08:30	23.3	23.3	23.3	81	18.3	1	3	248	0.00	30.308 
08:35	23.6	23.6	23.6	81	18.6	2	3	248	0.00	30.308 
08:40	23.8	23.8	23.8	80	18.5	1	4	248	0.00	30.308 
08:45	24.1	24.1	24.1	79	18.5	2	5	270	0.00	30.307 
08:50	24.4	24.4	24.4	78	18.5	1	2	270	0.00	30.307 
08:55	24.5	24.5	24.5	77	18.3	2	5	270	0.00	30.307 
09:00	24.7	24.7	24.7	77	18.5	1	3	270	0.00	30.315 
09:05	25.0	25.0	25.0	77	18.8	1	3	270	0.00	30.315 
09:10	25.3	25.3	25.3	76	18.8	2	3	270	0.00	30.315 
09:15	25.4	25.4	25.4	76	18.9	2	4	270	0.00	30.317 
09:20	25.6	25.6	25.6	76	19.1	2	5	270	0.00	30.317 
09:25	25.6	25.6	25.6	75	18.8	2	5	270	0.00	30.317 
09:30	25.8	25.8	25.8	75	19.0	1	3	270	0.00	30.315 
09:35	26.1	26.1	26.1	75	19.3	1	3	270	0.00	30.315 
09:40	26.3	26.3	26.3	74	19.2	1	3	270	0.00	30.315 
09:45	26.6	26.6	26.6	74	19.5	1	4	270	0.00	30.319 
09:50	26.7	26.7	26.7	74	19.5	1	3	270	0.00	30.319 
09:55	27.0	27.0	27.0	73	19.5	1	3	270	0.00	30.319 
10:00	27.2	27.2	27.2	73	19.7	1	3	270	0.00	30.321 
10:05	27.3	27.3	27.3	72	19.5	2	5	270	0.00	30.321 
10:10	27.6	27.6	27.6	71	19.4	1	4	315	0.00	30.321 
10:15	27.9	27.9	27.9	70	19.4	1	3	292	0.00	30.324 
10:20	28.4	28.4	28.4	70	19.9	1	3	292	0.00	30.324 
10:25	28.5	28.5	28.5	69	19.6	1	3	292	0.00	30.324 
10:30	28.8	28.8	28.8	68	19.6	1	3	292	0.00	30.327 
10:35	29.1	29.1	29.1	69	20.2	1	5	248	0.00	30.327 
10:40	29.3	29.3	29.3	67	19.7	2	4	248	0.00	30.327 
10:45	29.3	29.3	29.3	67	19.7	2	4	248	0.00	30.330 
10:50	29.8	29.8	29.8	69	20.9	1	2	248	0.00	30.330 
10:55	30.1	30.1	30.1	66	20.1	2	4	248	0.00	30.330 
11:00	30.3	30.3	30.3	66	20.3	2	5	315	0.00	30.331 
11:05	30.3	30.3	30.3	66	20.3	2	5	292	0.00	30.331 
11:10	30.6	30.6	30.6	67	21.0	1	4	292	0.00	30.331 
11:15	30.7	30.7	30.7	66	20.7	2	5	292	0.00	30.330 
11:20	31.0	31.0	31.0	66	21.0	1	4	315	0.00	30.330 
11:25	31.5	31.5	31.5	66	21.5	1	3	292	0.00	30.330 
11:30	31.6	31.6	31.6	65	21.2	1	3	292	0.00	30.328 
11:35	32.2	32.2	32.2	65	21.8	1	3	292	0.00	30.328 
11:40	32.4	32.4	32.4	62	20.9	1	5	315	0.00	30.328 
11:45	32.2	32.2	32.2	60	19.9	1	4	315	0.00	30.328 
11:50	31.9	31.9	31.9	59	19.2	0	3	315	0.00	30.328 
11:55	31.8	31.8	31.8	60	19.5	0	2	270	0.00	30.328 
12:00	31.9	31.9	31.9	59	19.2	1	3	270	0.00	30.325 
12:05	32.1	32.1	32.1	59	19.4	1	3	270	0.00	30.325 
12:10	31.9	31.9	31.9	57	18.4	2	5	315	0.00	30.325 
12:15	31.9	31.9	31.9	58	18.8	1	4	315	0.00	30.322 
12:20	32.2	32.2	32.2	57	18.7	1	4	315	0.00	30.322 
12:25	32.7	32.7	32.7	56	18.8	2	5	270	0.00	30.322 
12:30	33.2	33.2	33.2	57	19.6	1	4	315	0.00	30.315 
12:35	33.4	33.4	33.4	54	18.6	1	5	292	0.00	30.315 
12:40	33.2	33.2	33.2	55	18.8	1	4	270	0.00	30.315 
12:45	33.1	33.1	33.1	55	18.7	2	5	315	0.00	30.312 
12:50	32.9	32.9	32.9	54	18.1	1	3	315	0.00	30.312 
12:55	32.7	32.7	32.7	53	17.5	2	4	315	0.00	30.312 
13:00	33.1	33.1	33.1	54	18.3	1	3	248	0.00	30.305 
13:05	33.8	33.8	33.8	54	18.9	0	3	248	0.00	30.305 
13:10	34.3	34.3	34.3	51	18.1	1	3	248	0.00	30.305 
13:15	34.6	34.6	34.6	51	18.4	1	5	248	0.00	30.303 
13:20	34.4	34.4	34.4	50	17.7	1	5	248	0.00	30.303 
13:25	34.0	34.0	34.0	50	17.3	0	2	248	0.00	30.303 
13:30	33.4	33.4	33.4	51	17.2	2	5	248	0.00	30.302 
13:35	33.1	33.1	33.1	52	17.4	1	3	270	0.00	30.302 
13:40	33.1	33.1	33.1	53	17.9	1	4	292	0.00	30.302 
13:45	33.4	33.4	33.4	53	18.1	1	2	292	0.00	30.305 
13:50	33.5	33.5	33.5	54	18.7	1	3	292	0.00	30.305 
13:55	33.5	33.5	33.5	53	18.2	1	4	292	0.00	30.305 
14:00	33.5	33.5	33.5	53	18.2	2	5	292	0.00	30.304 
14:05	33.4	33.4	33.4	51	17.2	1	4	292	0.00	30.304 
14:10	33.1	33.1	33.1	52	17.4	1	4	315	0.00	30.304 
14:15	33.1	33.1	33.1	52	17.4	1	3	292	0.00	30.305 
14:20	32.8	32.8	32.8	53	17.6	1	4	292	0.00	30.305 
14:25	32.8	32.8	32.8	54	18.0	1	6	292	0.00	30.305 
14:30	32.8	32.8	32.8	54	18.0	1	4	270	0.00	30.304 
14:35	32.7	32.7	32.7	54	17.9	0	2	315	0.00	30.304 
14:40	32.5	32.5	32.5	54	17.7	1	3	292	0.00	30.304 
14:45	32.7	32.7	32.7	54	17.9	1	2	292	0.00	30.302 
14:50	32.9	32.9	32.9	54	18.1	1	4	315	0.00	30.302 
14:55	33.2	33.2	33.2	54	18.4	1	6	338	0.00	30.302 
15:00	33.7	33.7	33.7	53	18.4	1	4	292	0.00	30.304 
15:05	33.8	33.8	33.8	53	18.5	1	3	270	0.00	30.304 
15:10	34.0	34.0	34.0	52	18.2	1	3	270	0.00	30.304 
15:15	33.8	33.8	33.8	51	17.6	1	5	270	0.00	30.308 
15:20	33.7	33.7	33.7	51	17.5	1	3	248	0.00	30.308 
15:25	33.7	33.7	33.7	50	17.1	0	2	248	0.00	30.308 
15:30	33.7	33.7	33.7	51	17.5	0	3	248	0.00	30.308 
15:35	33.7	33.7	33.7	52	18.0	0	2	248	0.00	30.308 
15:40	33.7	33.7	33.7	52	18.0	0	3	248	0.00	30.308 
15:45	33.5	33.5	33.5	51	17.3	0	3	248	0.00	30.312 
15:50	33.5	33.5	33.5	51	17.3	0	2	248	0.00	30.312 
15:55	33.1	33.1	33.1	51	17.0	1	3	248	0.00	30.312 
16:00	32.8	32.8	32.8	51	16.7	1	3	248	0.00	30.317 
16:05	32.7	32.7	32.7	51	16.6	1	3	248	0.00	30.317 
16:10	32.5	32.5	32.5	51	16.4	0	2	248	0.00	30.317 
16:15	32.5	32.5	32.5	52	16.9	0	2	248	0.00	30.316 
16:20	32.5	32.5	32.5	53	17.3	0	2	248	0.00	30.316 
16:25	32.4	32.4	32.4	55	18.1	0	2	248	0.00	30.316 
16:30	32.1	32.1	32.1	56	18.2	0	2	248	0.00	30.320 
16:35	31.9	31.9	31.9	58	18.8	0	2	248	0.00	30.320 
16:40	31.8	31.8	31.8	58	18.7	0	2	248	0.00	30.320 
16:45	31.6	31.6	31.6	58	18.5	0	1	248	0.00	30.326 
16:50	31.6	31.6	31.6	59	18.9	0	1	248	0.00	30.326 
16:55	31.5	31.5	31.5	59	18.8	0	0	---	0.00	30.326 
17:00	31.5	31.5	31.5	59	18.8	0	2	248	0.00	30.330 
17:05	31.3	31.3	31.3	59	18.7	0	2	248	0.00	30.330 
17:10	31.3	31.3	31.3	59	18.7	0	1	248	0.00	30.330 
17:15	31.3	31.3	31.3	60	19.0	0	2	248	0.00	30.334 
17:20	31.3	31.3	31.3	60	19.0	0	1	248	0.00	30.334 
17:25	31.2	31.2	31.2	57	17.8	0	3	248	0.00	30.334 
17:30	31.2	31.2	31.2	54	16.5	1	3	248	0.00	30.334 
17:35	31.2	31.2	31.2	58	18.2	0	2	248	0.00	30.334 
17:40	31.0	31.0	31.0	61	19.1	0	2	248	0.00	30.334 
17:45	30.9	30.9	30.9	62	19.4	0	1	248	0.00	30.335 
17:50	30.7	30.7	30.7	62	19.2	0	2	248	0.00	30.335 
17:55	30.6	30.6	30.6	63	19.5	0	1	248	0.00	30.335 
18:00	30.6	30.6	30.6	63	19.5	0	2	248	0.00	30.336 
18:05	30.4	30.4	30.4	63	19.3	0	0	---	0.00	30.336 
18:10	30.4	30.4	30.4	63	19.3	0	1	248	0.00	30.336 
18:15	30.4	30.4	30.4	64	19.7	0	1	248	0.00	30.342 
18:20	30.3	30.3	30.3	64	19.6	0	1	248	0.00	30.342 
18:25	30.3	30.3	30.3	64	19.6	0	2	248	0.00	30.342 
18:30	30.3	30.3	30.3	63	19.2	0	2	248	0.00	30.347 
18:35	30.3	30.3	30.3	63	19.2	0	2	248	0.00	30.347 
18:40	30.3	30.3	30.3	63	19.2	0	2	248	0.00	30.347 
18:45	30.1	30.1	30.1	63	19.0	0	1	248	0.00	30.352 
18:50	30.1	30.1	30.1	63	19.0	0	1	248	0.00	30.352 
18:55	30.1	30.1	30.1	63	19.0	0	2	248	0.00	30.352 
19:00	30.1	30.1	30.1	64	19.4	0	2	248	0.00	30.353 
19:05	30.0	30.0	30.0	64	19.3	1	2	248	0.00	30.353 
19:10	30.0	30.0	30.0	64	19.3	0	2	248	0.00	30.353 
19:15	29.8	29.8	29.8	65	19.5	0	1	248	0.00	30.350 
19:20	29.8	29.8	29.8	65	19.5	0	2	248	0.00	30.350 
19:25	29.7	29.7	29.7	65	19.4	0	2	248	0.00	30.350 
19:30	29.5	29.5	29.5	65	19.2	0	2	248	0.00	30.353 
19:35	29.5	29.5	29.5	65	19.2	0	3	248	0.00	30.353 
19:40	29.4	29.4	29.4	65	19.1	0	2	248	0.00	30.353 
19:45	29.4	29.4	29.4	65	19.1	0	2	248	0.00	30.364 
19:50	29.4	29.4	29.4	65	19.1	0	1	248	0.00	30.364 
19:55	29.4	29.4	29.4	65	19.1	0	1	248	0.00	30.364 
20:00	29.4	29.4	29.4	65	19.1	0	2	248	0.00	30.363 
20:05	29.4	29.4	29.4	65	19.1	0	2	248	0.00	30.363 
20:10	29.4	29.4	29.4	65	19.1	0	1	248	0.00	30.363 
20:15	29.4	29.4	29.4	66	19.5	0	1	248	0.00	30.358 
20:20	29.4	29.4	29.4	67	19.8	0	1	248	0.00	30.358 
20:25	29.4	29.4	29.4	67	19.8	0	1	248	0.00	30.358 
20:30	29.3	29.3	29.3	68	20.1	0	1	248	0.00	30.354 
20:35	29.3	29.3	29.3	68	20.1	0	1	248	0.00	30.354 
20:40	29.3	29.3	29.3	69	20.4	0	1	248	0.00	30.354 
20:45	29.3	29.3	29.3	69	20.4	0	1	248	0.00	30.360 
20:50	29.1	29.1	29.1	70	20.6	0	1	248	0.00	30.360 
20:55	29.1	29.1	29.1	70	20.6	0	1	248	0.00	30.360 
21:00	29.1	29.1	29.1	71	20.9	0	1	248	0.00	30.362 
21:05	29.1	29.1	29.1	72	21.2	0	1	248	0.00	30.362 
21:10	29.1	29.1	29.1	72	21.2	0	3	248	0.00	30.362 
21:15	28.7	28.7	28.7	70	20.2	1	3	248	0.00	30.361 
21:20	28.2	28.2	28.2	70	19.7	0	3	248	0.00	30.361 
21:25	27.9	27.9	27.9	70	19.4	0	2	248	0.00	30.361 
21:30	27.8	27.8	27.8	70	19.3	0	2	248	0.00	30.365 
21:35	27.6	27.6	27.6	71	19.4	0	2	248	0.00	30.365 
21:40	27.5	27.5	27.5	72	19.7	0	2	248	0.00	30.365 
21:45	27.3	27.3	27.3	73	19.8	0	1	248	0.00	30.371 
21:50	27.3	27.3	27.3	72	19.5	0	2	248	0.00	30.371 
21:55	27.2	27.2	27.2	71	19.1	0	1	248	0.00	30.371 
22:00	27.2	27.2	27.2	70	18.7	0	2	248	0.00	30.376 
22:05	27.2	27.2	27.2	69	18.4	0	2	248	0.00	30.376 
22:10	27.0	27.0	27.0	69	18.2	0	2	248	0.00	30.376 
22:15	27.0	27.0	27.0	69	18.2	0	1	248	0.00	30.377 
22:20	27.0	27.0	27.0	68	17.9	0	1	248	0.00	30.377 
22:25	27.0	27.0	27.0	68	17.9	0	1	248	0.00	30.377 
22:30	26.9	26.9	26.9	68	17.8	0	2	248	0.00	30.377 
22:35	26.9	26.9	26.9	68	17.8	0	1	248	0.00	30.377 
22:40	26.7	26.7	26.7	68	17.6	0	1	248	0.00	30.377 
22:45	26.6	26.6	26.6	68	17.5	0	1	248	0.00	30.379 
22:50	26.6	26.6	26.6	69	17.8	0	1	248	0.00	30.379 
22:55	26.4	26.4	26.4	69	17.6	0	1	248	0.00	30.379 
23:00	26.3	26.3	26.3	69	17.5	0	0	---	0.00	30.378 
23:05	26.1	26.1	26.1	69	17.3	0	2	248	0.00	30.378 
23:10	26.0	26.0	26.0	69	17.2	0	1	248	0.00	30.378 
23:15	25.7	25.7	25.7	69	17.0	0	1	248	0.00	30.377 
23:20	25.6	25.6	25.6	69	16.9	0	1	248	0.00	30.377 
23:25	25.4	25.4	25.4	69	16.7	0	2	248	0.00	30.377 
23:30	25.3	25.3	25.3	70	16.9	0	1	248	0.00	30.379 
23:35	25.0	25.0	25.0	70	16.6	0	1	248	0.00	30.379 
23:40	24.8	24.8	24.8	70	16.4	0	1	248	0.00	30.379 
23:45	24.7	24.7	24.7	70	16.3	0	0	---	0.00	30.379 
23:50	24.5	24.5	24.5	71	16.5	0	2	248	0.00	30.379 
23:55	24.4	24.4	24.4	71	16.4	0	2	248	0.00	30.379 

CoCoRaHS
IN-AL-39
A2 Web Hosting
Creative Commons License
GoDaddy
search engine by freefind advanced

loaded 2018-11-18 11:09:12 • last modified 2010-11-18 10:43:29
Privacy PolicyDisclaimer
• wx.awcolley.com is powered by PmWiki v.2002016 •
• all content (unless otherwise noted) © 2018 A W Colley